sensor_id;sensor_type;location;lat;lon;timestamp;temperature;humidity
4602;DHT22;2313;48.552;9.370;2023-06-22T00:02:15;21.10;99.90
4602;DHT22;2313;48.552;9.370;2023-06-22T00:04:41;21.10;99.90
4602;DHT22;2313;48.552;9.370;2023-06-22T00:07:06;21.10;99.90
4602;DHT22;2313;48.552;9.370;2023-06-22T00:09:32;21.00;99.90
4602;DHT22;2313;48.552;9.370;2023-06-22T00:11:58;20.90;99.90
4602;DHT22;2313;48.552;9.370;2023-06-22T00:14:23;20.90;99.90
4602;DHT22;2313;48.552;9.370;2023-06-22T00:16:49;20.80;99.90
4602;DHT22;2313;48.552;9.370;2023-06-22T00:19:17;20.80;99.90
4602;DHT22;2313;48.552;9.370;2023-06-22T00:21:44;20.60;99.90
4602;DHT22;2313;48.552;9.370;2023-06-22T00:24:12;20.40;99.90
4602;DHT22;2313;48.552;9.370;2023-06-22T00:26:38;20.40;99.90
4602;DHT22;2313;48.552;9.370;2023-06-22T00:29:03;20.30;99.90
4602;DHT22;2313;48.552;9.370;2023-06-22T00:31:29;20.30;99.90
4602;DHT22;2313;48.552;9.370;2023-06-22T00:33:55;20.30;99.90
4602;DHT22;2313;48.552;9.370;2023-06-22T00:36:20;20.20;99.90
4602;DHT22;2313;48.552;9.370;2023-06-22T00:38:46;20.10;99.90
4602;DHT22;2313;48.552;9.370;2023-06-22T00:41:12;20.20;99.90
4602;DHT22;2313;48.552;9.370;2023-06-22T00:43:37;20.20;99.90
4602;DHT22;2313;48.552;9.370;2023-06-22T00:46:03;20.20;99.90
4602;DHT22;2313;48.552;9.370;2023-06-22T00:48:28;20.20;99.90
4602;DHT22;2313;48.552;9.370;2023-06-22T00:50:54;20.20;99.90
4602;DHT22;2313;48.552;9.370;2023-06-22T00:53:21;20.00;99.90
4602;DHT22;2313;48.552;9.370;2023-06-22T00:55:48;19.90;99.90
4602;DHT22;2313;48.552;9.370;2023-06-22T00:58:17;19.80;99.90
4602;DHT22;2313;48.552;9.370;2023-06-22T01:00:47;19.70;99.90
4602;DHT22;2313;48.552;9.370;2023-06-22T01:03:13;19.60;99.90
4602;DHT22;2313;48.552;9.370;2023-06-22T01:05:39;19.40;99.90
4602;DHT22;2313;48.552;9.370;2023-06-22T01:08:35;19.40;99.90
4602;DHT22;2313;48.552;9.370;2023-06-22T01:11:09;19.50;99.90
4602;DHT22;2313;48.552;9.370;2023-06-22T01:16:28;19.50;99.90
4602;DHT22;2313;48.552;9.370;2023-06-22T01:18:56;19.40;99.90
4602;DHT22;2313;48.552;9.370;2023-06-22T01:21:25;19.50;99.90
4602;DHT22;2313;48.552;9.370;2023-06-22T01:24:15;19.50;99.90
4602;DHT22;2313;48.552;9.370;2023-06-22T01:26:58;19.50;99.90
4602;DHT22;2313;48.552;9.370;2023-06-22T01:29:27;19.40;99.90
4602;DHT22;2313;48.552;9.370;2023-06-22T01:31:54;19.30;99.90
4602;DHT22;2313;48.552;9.370;2023-06-22T01:34:21;19.10;99.90
4602;DHT22;2313;48.552;9.370;2023-06-22T01:36:49;19.20;99.90
4602;DHT22;2313;48.552;9.370;2023-06-22T01:39:15;19.20;99.90
4602;DHT22;2313;48.552;9.370;2023-06-22T01:41:42;19.10;99.90
4602;DHT22;2313;48.552;9.370;2023-06-22T01:44:09;19.00;99.90
4602;DHT22;2313;48.552;9.370;2023-06-22T01:46:36;18.90;99.90
4602;DHT22;2313;48.552;9.370;2023-06-22T01:49:03;19.00;99.90
4602;DHT22;2313;48.552;9.370;2023-06-22T01:51:29;19.00;99.90
4602;DHT22;2313;48.552;9.370;2023-06-22T01:53:55;18.90;99.90
4602;DHT22;2313;48.552;9.370;2023-06-22T01:56:21;18.80;99.90
4602;DHT22;2313;48.552;9.370;2023-06-22T01:58:51;18.60;99.90
4602;DHT22;2313;48.552;9.370;2023-06-22T02:01:26;18.50;99.90
4602;DHT22;2313;48.552;9.370;2023-06-22T02:04:16;18.50;99.90
4602;DHT22;2313;48.552;9.370;2023-06-22T02:06:44;18.70;99.90
4602;DHT22;2313;48.552;9.370;2023-06-22T02:09:17;18.70;99.90
4602;DHT22;2313;48.552;9.370;2023-06-22T02:11:45;18.80;99.90
4602;DHT22;2313;48.552;9.370;2023-06-22T02:14:12;18.80;99.90
4602;DHT22;2313;48.552;9.370;2023-06-22T02:16:39;18.80;99.90
4602;DHT22;2313;48.552;9.370;2023-06-22T02:19:05;18.70;99.90
4602;DHT22;2313;48.552;9.370;2023-06-22T02:21:31;18.70;99.90
4602;DHT22;2313;48.552;9.370;2023-06-22T02:23:57;18.70;99.90
4602;DHT22;2313;48.552;9.370;2023-06-22T02:26:25;18.70;99.90
4602;DHT22;2313;48.552;9.370;2023-06-22T02:28:51;18.70;99.90
4602;DHT22;2313;48.552;9.370;2023-06-22T02:31:18;18.60;99.90
4602;DHT22;2313;48.552;9.370;2023-06-22T02:33:44;18.60;99.90
4602;DHT22;2313;48.552;9.370;2023-06-22T02:36:10;18.60;99.90
4602;DHT22;2313;48.552;9.370;2023-06-22T02:38:40;18.70;99.90
4602;DHT22;2313;48.552;9.370;2023-06-22T02:41:10;18.70;99.90
4602;DHT22;2313;48.552;9.370;2023-06-22T02:43:38;18.60;99.90
4602;DHT22;2313;48.552;9.370;2023-06-22T02:46:04;18.60;99.90
4602;DHT22;2313;48.552;9.370;2023-06-22T02:48:29;18.60;99.90
4602;DHT22;2313;48.552;9.370;2023-06-22T02:50:55;18.50;99.90
4602;DHT22;2313;48.552;9.370;2023-06-22T02:53:20;18.40;99.90
4602;DHT22;2313;48.552;9.370;2023-06-22T02:55:46;18.20;99.90
4602;DHT22;2313;48.552;9.370;2023-06-22T02:58:11;18.10;99.90
4602;DHT22;2313;48.552;9.370;2023-06-22T03:00:37;18.20;99.90
4602;DHT22;2313;48.552;9.370;2023-06-22T03:03:04;18.20;99.90
4602;DHT22;2313;48.552;9.370;2023-06-22T03:05:30;18.10;99.90
4602;DHT22;2313;48.552;9.370;2023-06-22T03:07:55;18.20;99.90
4602;DHT22;2313;48.552;9.370;2023-06-22T03:10:21;18.30;99.90
4602;DHT22;2313;48.552;9.370;2023-06-22T03:12:47;18.30;99.90
4602;DHT22;2313;48.552;9.370;2023-06-22T03:15:12;18.20;99.90
4602;DHT22;2313;48.552;9.370;2023-06-22T03:17:39;18.20;99.90
4602;DHT22;2313;48.552;9.370;2023-06-22T03:20:06;18.20;99.90
4602;DHT22;2313;48.552;9.370;2023-06-22T03:22:36;18.10;99.90
4602;DHT22;2313;48.552;9.370;2023-06-22T03:25:02;18.20;99.90
4602;DHT22;2313;48.552;9.370;2023-06-22T03:27:28;18.20;99.90
4602;DHT22;2313;48.552;9.370;2023-06-22T03:29:54;18.20;99.90
4602;DHT22;2313;48.552;9.370;2023-06-22T03:32:19;18.10;99.90
4602;DHT22;2313;48.552;9.370;2023-06-22T03:34:45;18.10;99.90
4602;DHT22;2313;48.552;9.370;2023-06-22T03:37:14;17.90;99.90
4602;DHT22;2313;48.552;9.370;2023-06-22T03:39:40;18.00;99.90
4602;DHT22;2313;48.552;9.370;2023-06-22T03:42:06;18.10;99.90
4602;DHT22;2313;48.552;9.370;2023-06-22T03:44:32;18.10;99.90
4602;DHT22;2313;48.552;9.370;2023-06-22T03:46:57;18.20;99.90
4602;DHT22;2313;48.552;9.370;2023-06-22T03:49:23;18.20;99.90
4602;DHT22;2313;48.552;9.370;2023-06-22T03:51:48;18.20;99.90
4602;DHT22;2313;48.552;9.370;2023-06-22T03:54:14;18.30;99.90
4602;DHT22;2313;48.552;9.370;2023-06-22T03:56:39;18.20;99.90
4602;DHT22;2313;48.552;9.370;2023-06-22T03:59:05;18.20;99.90
4602;DHT22;2313;48.552;9.370;2023-06-22T04:01:31;18.20;99.90
4602;DHT22;2313;48.552;9.370;2023-06-22T04:03:56;18.10;99.90
4602;DHT22;2313;48.552;9.370;2023-06-22T04:06:22;18.10;99.90
4602;DHT22;2313;48.552;9.370;2023-06-22T04:08:48;18.20;99.90
4602;DHT22;2313;48.552;9.370;2023-06-22T04:11:16;18.20;99.90
4602;DHT22;2313;48.552;9.370;2023-06-22T04:13:43;18.20;99.90
4602;DHT22;2313;48.552;9.370;2023-06-22T04:16:08;18.10;99.90
4602;DHT22;2313;48.552;9.370;2023-06-22T04:18:34;18.20;99.90
4602;DHT22;2313;48.552;9.370;2023-06-22T04:20:59;18.30;99.90
4602;DHT22;2313;48.552;9.370;2023-06-22T04:23:25;18.50;99.90
4602;DHT22;2313;48.552;9.370;2023-06-22T04:25:50;18.60;99.90
4602;DHT22;2313;48.552;9.370;2023-06-22T04:28:17;18.70;99.90
4602;DHT22;2313;48.552;9.370;2023-06-22T04:30:42;18.80;99.90
4602;DHT22;2313;48.552;9.370;2023-06-22T04:33:14;18.90;99.90
4602;DHT22;2313;48.552;9.370;2023-06-22T04:35:39;19.00;99.90
4602;DHT22;2313;48.552;9.370;2023-06-22T04:38:08;19.10;99.90
4602;DHT22;2313;48.552;9.370;2023-06-22T04:40:34;19.20;99.90
4602;DHT22;2313;48.552;9.370;2023-06-22T04:42:59;19.20;99.90
4602;DHT22;2313;48.552;9.370;2023-06-22T04:45:28;19.30;99.90
4602;DHT22;2313;48.552;9.370;2023-06-22T04:47:54;19.30;99.90
4602;DHT22;2313;48.552;9.370;2023-06-22T04:50:20;19.30;99.90
4602;DHT22;2313;48.552;9.370;2023-06-22T04:52:47;19.30;99.90
4602;DHT22;2313;48.552;9.370;2023-06-22T04:55:13;19.50;99.90
4602;DHT22;2313;48.552;9.370;2023-06-22T04:57:47;19.60;99.90
4602;DHT22;2313;48.552;9.370;2023-06-22T05:00:19;19.80;99.90
4602;DHT22;2313;48.552;9.370;2023-06-22T05:02:48;19.80;99.90
4602;DHT22;2313;48.552;9.370;2023-06-22T05:05:15;19.90;99.90
4602;DHT22;2313;48.552;9.370;2023-06-22T05:07:45;20.10;99.90
4602;DHT22;2313;48.552;9.370;2023-06-22T05:10:12;20.20;99.90
4602;DHT22;2313;48.552;9.370;2023-06-22T05:12:39;20.40;99.90
4602;DHT22;2313;48.552;9.370;2023-06-22T05:15:09;20.50;99.90
4602;DHT22;2313;48.552;9.370;2023-06-22T05:17:36;20.60;99.90
4602;DHT22;2313;48.552;9.370;2023-06-22T05:20:02;20.60;99.90
4602;DHT22;2313;48.552;9.370;2023-06-22T05:22:31;20.70;99.90
4602;DHT22;2313;48.552;9.370;2023-06-22T05:24:57;20.80;99.90
4602;DHT22;2313;48.552;9.370;2023-06-22T05:27:23;20.90;99.90
4602;DHT22;2313;48.552;9.370;2023-06-22T05:29:48;20.90;99.90
4602;DHT22;2313;48.552;9.370;2023-06-22T05:32:14;21.00;99.90
4602;DHT22;2313;48.552;9.370;2023-06-22T05:34:39;21.10;99.90
4602;DHT22;2313;48.552;9.370;2023-06-22T05:37:05;21.20;99.90
4602;DHT22;2313;48.552;9.370;2023-06-22T05:39:31;21.20;99.90
4602;DHT22;2313;48.552;9.370;2023-06-22T05:41:57;21.40;99.90
4602;DHT22;2313;48.552;9.370;2023-06-22T05:44:22;21.40;99.90
4602;DHT22;2313;48.552;9.370;2023-06-22T05:46:48;21.60;99.90
4602;DHT22;2313;48.552;9.370;2023-06-22T05:49:14;21.60;99.90
4602;DHT22;2313;48.552;9.370;2023-06-22T05:51:40;21.70;99.90
4602;DHT22;2313;48.552;9.370;2023-06-22T05:54:06;21.70;99.90
4602;DHT22;2313;48.552;9.370;2023-06-22T05:56:34;21.80;99.90
4602;DHT22;2313;48.552;9.370;2023-06-22T05:58:59;21.80;99.90
4602;DHT22;2313;48.552;9.370;2023-06-22T06:01:25;21.90;99.90
4602;DHT22;2313;48.552;9.370;2023-06-22T06:03:51;22.00;99.90
4602;DHT22;2313;48.552;9.370;2023-06-22T06:06:18;22.10;99.90
4602;DHT22;2313;48.552;9.370;2023-06-22T06:08:46;22.20;99.90
4602;DHT22;2313;48.552;9.370;2023-06-22T06:11:12;22.40;99.90
4602;DHT22;2313;48.552;9.370;2023-06-22T06:13:37;22.50;99.90
4602;DHT22;2313;48.552;9.370;2023-06-22T06:16:03;22.50;99.90
4602;DHT22;2313;48.552;9.370;2023-06-22T06:18:29;22.60;99.90
4602;DHT22;2313;48.552;9.370;2023-06-22T06:20:54;22.70;99.90
4602;DHT22;2313;48.552;9.370;2023-06-22T06:23:20;22.80;99.90
4602;DHT22;2313;48.552;9.370;2023-06-22T06:25:46;22.80;99.90
4602;DHT22;2313;48.552;9.370;2023-06-22T06:28:11;22.90;99.90
4602;DHT22;2313;48.552;9.370;2023-06-22T06:30:37;23.10;99.90
4602;DHT22;2313;48.552;9.370;2023-06-22T06:33:03;23.30;99.90
4602;DHT22;2313;48.552;9.370;2023-06-22T06:35:34;23.50;99.90
4602;DHT22;2313;48.552;9.370;2023-06-22T06:38:00;23.60;99.90
4602;DHT22;2313;48.552;9.370;2023-06-22T06:40:25;23.70;99.90
4602;DHT22;2313;48.552;9.370;2023-06-22T06:42:51;23.70;99.90
4602;DHT22;2313;48.552;9.370;2023-06-22T06:45:18;23.80;99.90
4602;DHT22;2313;48.552;9.370;2023-06-22T06:47:44;23.80;99.90
4602;DHT22;2313;48.552;9.370;2023-06-22T06:50:10;23.90;99.90
4602;DHT22;2313;48.552;9.370;2023-06-22T06:52:37;24.00;99.90
4602;DHT22;2313;48.552;9.370;2023-06-22T06:55:03;24.20;99.90
4602;DHT22;2313;48.552;9.370;2023-06-22T06:57:30;24.30;99.90
4602;DHT22;2313;48.552;9.370;2023-06-22T06:59:56;24.40;99.90
4602;DHT22;2313;48.552;9.370;2023-06-22T07:02:23;24.60;99.90
4602;DHT22;2313;48.552;9.370;2023-06-22T07:04:49;24.60;99.90
4602;DHT22;2313;48.552;9.370;2023-06-22T07:07:14;24.70;99.90
4602;DHT22;2313;48.552;9.370;2023-06-22T07:09:40;24.80;99.90
4602;DHT22;2313;48.552;9.370;2023-06-22T07:12:06;24.90;99.90
4602;DHT22;2313;48.552;9.370;2023-06-22T07:14:32;25.00;99.90
4602;DHT22;2313;48.552;9.370;2023-06-22T07:16:58;25.00;99.90
4602;DHT22;2313;48.552;9.370;2023-06-22T07:19:27;25.10;99.90
4602;DHT22;2313;48.552;9.370;2023-06-22T07:21:54;25.20;99.90
4602;DHT22;2313;48.552;9.370;2023-06-22T07:24:20;25.30;99.90
4602;DHT22;2313;48.552;9.370;2023-06-22T07:26:48;25.40;99.90
4602;DHT22;2313;48.552;9.370;2023-06-22T07:29:16;25.40;99.90
4602;DHT22;2313;48.552;9.370;2023-06-22T07:31:42;25.40;99.90
4602;DHT22;2313;48.552;9.370;2023-06-22T07:34:07;25.50;99.90
4602;DHT22;2313;48.552;9.370;2023-06-22T07:36:33;25.50;99.90
4602;DHT22;2313;48.552;9.370;2023-06-22T07:39:01;25.60;99.90
4602;DHT22;2313;48.552;9.370;2023-06-22T07:41:28;25.60;99.90
4602;DHT22;2313;48.552;9.370;2023-06-22T07:43:53;25.70;99.90
4602;DHT22;2313;48.552;9.370;2023-06-22T07:46:19;25.80;99.90
4602;DHT22;2313;48.552;9.370;2023-06-22T07:48:44;25.80;99.90
4602;DHT22;2313;48.552;9.370;2023-06-22T07:51:10;25.80;99.90
4602;DHT22;2313;48.552;9.370;2023-06-22T07:53:42;25.90;99.90
4602;DHT22;2313;48.552;9.370;2023-06-22T07:56:10;25.90;99.90
4602;DHT22;2313;48.552;9.370;2023-06-22T07:58:36;26.10;99.90
4602;DHT22;2313;48.552;9.370;2023-06-22T08:01:02;26.30;99.90
4602;DHT22;2313;48.552;9.370;2023-06-22T08:03:28;26.40;99.90
4602;DHT22;2313;48.552;9.370;2023-06-22T08:05:54;26.40;99.90
4602;DHT22;2313;48.552;9.370;2023-06-22T08:08:20;26.50;99.90
4602;DHT22;2313;48.552;9.370;2023-06-22T08:10:46;26.50;99.90
4602;DHT22;2313;48.552;9.370;2023-06-22T08:13:11;26.70;99.90
4602;DHT22;2313;48.552;9.370;2023-06-22T08:15:37;26.90;99.90
4602;DHT22;2313;48.552;9.370;2023-06-22T08:18:03;27.00;99.90
4602;DHT22;2313;48.552;9.370;2023-06-22T08:20:29;27.10;99.90
4602;DHT22;2313;48.552;9.370;2023-06-22T08:22:55;27.10;99.90
4602;DHT22;2313;48.552;9.370;2023-06-22T08:25:23;27.20;99.90
4602;DHT22;2313;48.552;9.370;2023-06-22T08:27:48;27.40;99.90
4602;DHT22;2313;48.552;9.370;2023-06-22T08:30:15;27.40;99.90
4602;DHT22;2313;48.552;9.370;2023-06-22T08:32:41;27.50;99.90
4602;DHT22;2313;48.552;9.370;2023-06-22T08:35:07;27.70;99.90
4602;DHT22;2313;48.552;9.370;2023-06-22T08:37:34;27.80;99.90
4602;DHT22;2313;48.552;9.370;2023-06-22T08:40:02;27.90;99.90
4602;DHT22;2313;48.552;9.370;2023-06-22T08:42:31;28.00;99.90
4602;DHT22;2313;48.552;9.370;2023-06-22T08:44:57;28.10;99.90
4602;DHT22;2313;48.552;9.370;2023-06-22T08:47:22;28.10;99.90
4602;DHT22;2313;48.552;9.370;2023-06-22T08:49:49;28.10;99.90
4602;DHT22;2313;48.552;9.370;2023-06-22T08:52:14;28.00;99.90
4602;DHT22;2313;48.552;9.370;2023-06-22T08:54:40;28.00;99.90
4602;DHT22;2313;48.552;9.370;2023-06-22T08:57:06;28.10;99.90
4602;DHT22;2313;48.552;9.370;2023-06-22T08:59:32;28.10;99.90
4602;DHT22;2313;48.552;9.370;2023-06-22T09:01:57;28.30;99.90
4602;DHT22;2313;48.552;9.370;2023-06-22T09:04:23;28.40;99.90
4602;DHT22;2313;48.552;9.370;2023-06-22T09:06:49;28.40;99.90
4602;DHT22;2313;48.552;9.370;2023-06-22T09:09:17;28.50;99.90
4602;DHT22;2313;48.552;9.370;2023-06-22T09:11:43;28.60;99.90
4602;DHT22;2313;48.552;9.370;2023-06-22T09:14:10;28.70;99.90
4602;DHT22;2313;48.552;9.370;2023-06-22T09:16:36;28.80;99.90
4602;DHT22;2313;48.552;9.370;2023-06-22T09:19:01;28.70;99.90
4602;DHT22;2313;48.552;9.370;2023-06-22T09:21:27;28.60;99.90
4602;DHT22;2313;48.552;9.370;2023-06-22T09:23:53;28.90;99.90
4602;DHT22;2313;48.552;9.370;2023-06-22T09:26:19;29.10;99.90
4602;DHT22;2313;48.552;9.370;2023-06-22T09:28:44;29.30;99.90
4602;DHT22;2313;48.552;9.370;2023-06-22T09:31:10;29.70;99.90
4602;DHT22;2313;48.552;9.370;2023-06-22T09:33:36;29.80;99.90
4602;DHT22;2313;48.552;9.370;2023-06-22T09:36:05;29.90;99.90
4602;DHT22;2313;48.552;9.370;2023-06-22T09:38:37;30.10;99.90
4602;DHT22;2313;48.552;9.370;2023-06-22T09:41:03;30.20;99.90
4602;DHT22;2313;48.552;9.370;2023-06-22T09:43:31;30.20;99.90
4602;DHT22;2313;48.552;9.370;2023-06-22T09:45:56;30.40;99.90
4602;DHT22;2313;48.552;9.370;2023-06-22T09:48:22;30.50;99.90
4602;DHT22;2313;48.552;9.370;2023-06-22T09:50:47;30.50;99.90
4602;DHT22;2313;48.552;9.370;2023-06-22T09:53:13;30.80;99.90
4602;DHT22;2313;48.552;9.370;2023-06-22T09:55:39;31.00;99.90
4602;DHT22;2313;48.552;9.370;2023-06-22T09:58:04;31.10;97.90
4602;DHT22;2313;48.552;9.370;2023-06-22T10:00:30;31.40;99.50
4602;DHT22;2313;48.552;9.370;2023-06-22T10:02:57;31.80;97.80
4602;DHT22;2313;48.552;9.370;2023-06-22T10:05:23;32.10;97.30
4602;DHT22;2313;48.552;9.370;2023-06-22T10:07:49;32.00;97.60
4602;DHT22;2313;48.552;9.370;2023-06-22T10:10:14;31.90;97.30
4602;DHT22;2313;48.552;9.370;2023-06-22T10:12:46;31.70;96.90
4602;DHT22;2313;48.552;9.370;2023-06-22T10:15:15;31.50;97.70
4602;DHT22;2313;48.552;9.370;2023-06-22T10:17:41;31.10;97.60
4602;DHT22;2313;48.552;9.370;2023-06-22T10:20:07;31.10;99.60
4602;DHT22;2313;48.552;9.370;2023-06-22T10:22:43;31.00;99.90
4602;DHT22;2313;48.552;9.370;2023-06-22T10:25:10;31.00;99.60
4602;DHT22;2313;48.552;9.370;2023-06-22T10:27:36;31.30;99.90
4602;DHT22;2313;48.552;9.370;2023-06-22T10:30:07;31.70;99.90
4602;DHT22;2313;48.552;9.370;2023-06-22T10:32:33;32.00;96.70
4602;DHT22;2313;48.552;9.370;2023-06-22T10:34:58;31.90;95.50
4602;DHT22;2313;48.552;9.370;2023-06-22T10:37:24;32.30;98.40
4602;DHT22;2313;48.552;9.370;2023-06-22T10:39:50;32.60;96.90
4602;DHT22;2313;48.552;9.370;2023-06-22T10:42:15;32.70;96.00
4602;DHT22;2313;48.552;9.370;2023-06-22T10:44:41;33.00;96.20
4602;DHT22;2313;48.552;9.370;2023-06-22T10:47:09;33.10;96.00
4602;DHT22;2313;48.552;9.370;2023-06-22T10:49:39;33.00;96.20
4602;DHT22;2313;48.552;9.370;2023-06-22T10:52:06;33.00;95.60
4602;DHT22;2313;48.552;9.370;2023-06-22T10:54:33;33.10;94.90
4602;DHT22;2313;48.552;9.370;2023-06-22T10:56:59;33.10;94.70
4602;DHT22;2313;48.552;9.370;2023-06-22T10:59:25;33.20;95.40
4602;DHT22;2313;48.552;9.370;2023-06-22T11:01:51;33.10;94.00
4602;DHT22;2313;48.552;9.370;2023-06-22T11:04:17;33.10;94.40
4602;DHT22;2313;48.552;9.370;2023-06-22T11:06:43;33.10;93.70
4602;DHT22;2313;48.552;9.370;2023-06-22T11:09:09;33.00;94.90
4602;DHT22;2313;48.552;9.370;2023-06-22T11:11:34;32.90;96.20
4602;DHT22;2313;48.552;9.370;2023-06-22T11:14:00;33.10;95.40
4602;DHT22;2313;48.552;9.370;2023-06-22T11:16:26;33.10;95.20
4602;DHT22;2313;48.552;9.370;2023-06-22T11:18:52;33.30;95.80
4602;DHT22;2313;48.552;9.370;2023-06-22T11:21:18;33.40;95.00
4602;DHT22;2313;48.552;9.370;2023-06-22T11:23:43;33.50;94.00
4602;DHT22;2313;48.552;9.370;2023-06-22T11:26:09;33.40;96.10
4602;DHT22;2313;48.552;9.370;2023-06-22T11:28:35;33.30;95.00
4602;DHT22;2313;48.552;9.370;2023-06-22T11:31:00;33.20;95.20
4602;DHT22;2313;48.552;9.370;2023-06-22T11:33:27;33.10;95.40
4602;DHT22;2313;48.552;9.370;2023-06-22T11:35:53;33.10;93.20
4602;DHT22;2313;48.552;9.370;2023-06-22T11:38:19;32.90;94.20
4602;DHT22;2313;48.552;9.370;2023-06-22T11:40:45;32.80;95.40
4602;DHT22;2313;48.552;9.370;2023-06-22T11:43:10;32.60;97.40
4602;DHT22;2313;48.552;9.370;2023-06-22T11:45:36;32.60;95.30
4602;DHT22;2313;48.552;9.370;2023-06-22T11:48:02;32.40;96.00
4602;DHT22;2313;48.552;9.370;2023-06-22T11:50:27;32.10;95.90
4602;DHT22;2313;48.552;9.370;2023-06-22T11:52:55;31.90;98.20
4602;DHT22;2313;48.552;9.370;2023-06-22T11:55:21;31.80;99.40
4602;DHT22;2313;48.552;9.370;2023-06-22T11:57:55;31.70;98.80
4602;DHT22;2313;48.552;9.370;2023-06-22T12:00:21;31.80;98.60
4602;DHT22;2313;48.552;9.370;2023-06-22T12:02:49;31.90;97.70
4602;DHT22;2313;48.552;9.370;2023-06-22T12:05:17;32.20;98.60
4602;DHT22;2313;48.552;9.370;2023-06-22T12:07:43;32.70;96.90
4602;DHT22;2313;48.552;9.370;2023-06-22T12:10:09;32.80;96.20
4602;DHT22;2313;48.552;9.370;2023-06-22T12:12:35;33.00;95.50
4602;DHT22;2313;48.552;9.370;2023-06-22T12:15:00;33.10;96.10
4602;DHT22;2313;48.552;9.370;2023-06-22T12:17:29;32.90;97.00
4602;DHT22;2313;48.552;9.370;2023-06-22T12:19:55;32.80;96.60
4602;DHT22;2313;48.552;9.370;2023-06-22T12:22:20;32.70;96.50
4602;DHT22;2313;48.552;9.370;2023-06-22T12:24:46;32.40;97.50
4602;DHT22;2313;48.552;9.370;2023-06-22T12:27:12;32.20;97.00
4602;DHT22;2313;48.552;9.370;2023-06-22T12:29:37;32.00;96.80
4602;DHT22;2313;48.552;9.370;2023-06-22T12:32:03;31.80;98.90
4602;DHT22;2313;48.552;9.370;2023-06-22T12:34:29;31.70;99.30
4602;DHT22;2313;48.552;9.370;2023-06-22T12:36:54;31.50;99.90
4602;DHT22;2313;48.552;9.370;2023-06-22T12:39:20;31.30;99.90
4602;DHT22;2313;48.552;9.370;2023-06-22T12:41:46;31.20;99.90
4602;DHT22;2313;48.552;9.370;2023-06-22T12:44:11;31.00;99.90
4602;DHT22;2313;48.552;9.370;2023-06-22T12:46:37;30.90;99.90
4602;DHT22;2313;48.552;9.370;2023-06-22T12:49:04;30.70;99.90
4602;DHT22;2313;48.552;9.370;2023-06-22T12:51:30;30.50;99.90
4602;DHT22;2313;48.552;9.370;2023-06-22T12:53:56;30.50;99.90
4602;DHT22;2313;48.552;9.370;2023-06-22T12:56:22;30.40;99.90
4602;DHT22;2313;48.552;9.370;2023-06-22T12:58:48;30.40;99.90
4602;DHT22;2313;48.552;9.370;2023-06-22T13:01:13;30.50;99.90
4602;DHT22;2313;48.552;9.370;2023-06-22T13:03:39;30.50;99.90
4602;DHT22;2313;48.552;9.370;2023-06-22T13:06:05;30.60;99.90
4602;DHT22;2313;48.552;9.370;2023-06-22T13:08:30;30.50;99.90
4602;DHT22;2313;48.552;9.370;2023-06-22T13:10:56;30.40;99.90
4602;DHT22;2313;48.552;9.370;2023-06-22T13:13:25;30.40;99.90
4602;DHT22;2313;48.552;9.370;2023-06-22T13:15:52;30.40;99.90
4602;DHT22;2313;48.552;9.370;2023-06-22T13:18:19;30.40;99.90
4602;DHT22;2313;48.552;9.370;2023-06-22T13:20:45;30.40;99.90
4602;DHT22;2313;48.552;9.370;2023-06-22T13:23:11;30.60;99.90
4602;DHT22;2313;48.552;9.370;2023-06-22T13:25:37;30.80;99.60
4602;DHT22;2313;48.552;9.370;2023-06-22T13:28:02;30.90;99.90
4602;DHT22;2313;48.552;9.370;2023-06-22T13:30:28;31.10;99.90
4602;DHT22;2313;48.552;9.370;2023-06-22T13:32:54;31.10;99.90
4602;DHT22;2313;48.552;9.370;2023-06-22T13:35:20;31.10;99.90
4602;DHT22;2313;48.552;9.370;2023-06-22T13:37:45;31.10;99.90
4602;DHT22;2313;48.552;9.370;2023-06-22T13:40:11;31.10;99.90
4602;DHT22;2313;48.552;9.370;2023-06-22T13:42:37;30.90;99.90
4602;DHT22;2313;48.552;9.370;2023-06-22T13:45:03;30.70;99.90
4602;DHT22;2313;48.552;9.370;2023-06-22T13:47:29;30.60;99.90
4602;DHT22;2313;48.552;9.370;2023-06-22T13:49:55;30.60;99.90
4602;DHT22;2313;48.552;9.370;2023-06-22T13:52:21;30.50;98.50
4602;DHT22;2313;48.552;9.370;2023-06-22T13:54:46;30.40;97.60
4602;DHT22;2313;48.552;9.370;2023-06-22T13:57:12;30.30;99.40
4602;DHT22;2313;48.552;9.370;2023-06-22T13:59:38;30.30;99.90
4602;DHT22;2313;48.552;9.370;2023-06-22T14:02:03;30.30;99.90
4602;DHT22;2313;48.552;9.370;2023-06-22T14:04:29;30.30;99.90
4602;DHT22;2313;48.552;9.370;2023-06-22T14:06:55;30.30;99.90
4602;DHT22;2313;48.552;9.370;2023-06-22T14:09:21;30.30;99.90
4602;DHT22;2313;48.552;9.370;2023-06-22T14:11:47;30.30;99.90
4602;DHT22;2313;48.552;9.370;2023-06-22T14:14:12;30.30;99.90
4602;DHT22;2313;48.552;9.370;2023-06-22T14:16:38;30.20;99.90
4602;DHT22;2313;48.552;9.370;2023-06-22T14:19:03;30.30;99.90
4602;DHT22;2313;48.552;9.370;2023-06-22T14:21:29;30.20;99.90
4602;DHT22;2313;48.552;9.370;2023-06-22T14:23:54;30.20;99.90
4602;DHT22;2313;48.552;9.370;2023-06-22T14:26:20;30.20;99.90
4602;DHT22;2313;48.552;9.370;2023-06-22T14:28:46;30.20;99.90
4602;DHT22;2313;48.552;9.370;2023-06-22T14:31:17;30.30;99.90
4602;DHT22;2313;48.552;9.370;2023-06-22T14:33:48;30.20;99.90
4602;DHT22;2313;48.552;9.370;2023-06-22T14:36:15;30.20;99.90
4602;DHT22;2313;48.552;9.370;2023-06-22T14:38:40;30.30;99.90
4602;DHT22;2313;48.552;9.370;2023-06-22T14:41:06;30.50;99.90
4602;DHT22;2313;48.552;9.370;2023-06-22T14:43:32;30.60;99.90
4602;DHT22;2313;48.552;9.370;2023-06-22T14:45:57;30.70;98.90
4602;DHT22;2313;48.552;9.370;2023-06-22T14:48:23;30.70;99.90
4602;DHT22;2313;48.552;9.370;2023-06-22T14:50:48;30.70;98.50
4602;DHT22;2313;48.552;9.370;2023-06-22T14:53:14;30.70;99.70
4602;DHT22;2313;48.552;9.370;2023-06-22T14:55:40;30.70;99.00
4602;DHT22;2313;48.552;9.370;2023-06-22T14:58:06;30.70;99.90
4602;DHT22;2313;48.552;9.370;2023-06-22T15:00:32;30.70;99.90
4602;DHT22;2313;48.552;9.370;2023-06-22T15:02:58;30.80;99.90
4602;DHT22;2313;48.552;9.370;2023-06-22T15:05:24;30.80;98.70
4602;DHT22;2313;48.552;9.370;2023-06-22T15:07:50;30.90;98.20
4602;DHT22;2313;48.552;9.370;2023-06-22T15:10:16;31.00;96.60
4602;DHT22;2313;48.552;9.370;2023-06-22T15:12:41;31.10;97.10
4602;DHT22;2313;48.552;9.370;2023-06-22T15:15:07;31.20;97.00
4602;DHT22;2313;48.552;9.370;2023-06-22T15:17:33;31.20;96.80
4602;DHT22;2313;48.552;9.370;2023-06-22T15:19:59;31.20;96.00
4602;DHT22;2313;48.552;9.370;2023-06-22T15:22:24;31.20;95.60
4602;DHT22;2313;48.552;9.370;2023-06-22T15:24:50;31.10;97.60
4602;DHT22;2313;48.552;9.370;2023-06-22T15:27:19;31.10;98.00
4602;DHT22;2313;48.552;9.370;2023-06-22T15:29:45;31.10;96.30
4602;DHT22;2313;48.552;9.370;2023-06-22T15:32:10;31.10;95.80
4602;DHT22;2313;48.552;9.370;2023-06-22T15:34:37;31.10;95.50
4602;DHT22;2313;48.552;9.370;2023-06-22T15:37:03;31.10;95.90
4602;DHT22;2313;48.552;9.370;2023-06-22T15:39:28;31.00;96.10
4602;DHT22;2313;48.552;9.370;2023-06-22T15:41:54;30.90;96.70
4602;DHT22;2313;48.552;9.370;2023-06-22T15:44:23;30.70;96.80
4602;DHT22;2313;48.552;9.370;2023-06-22T15:46:48;30.50;96.80
4602;DHT22;2313;48.552;9.370;2023-06-22T15:49:15;30.40;97.20
4602;DHT22;2313;48.552;9.370;2023-06-22T15:51:41;30.30;98.20
4602;DHT22;2313;48.552;9.370;2023-06-22T15:54:06;30.20;98.60
4602;DHT22;2313;48.552;9.370;2023-06-22T15:56:32;30.10;95.90
4602;DHT22;2313;48.552;9.370;2023-06-22T15:58:58;30.00;92.90
4602;DHT22;2313;48.552;9.370;2023-06-22T16:01:24;29.80;89.50